createdAt,value
2023-05-13T00:00:21.906Z,99271.59
2023-05-13T00:02:49.731Z,99271.88
2023-05-13T00:05:17.578Z,99265.59
2023-05-13T00:07:46.620Z,99231.50
2023-05-13T00:10:16.429Z,99267.31
2023-05-13T00:12:44.193Z,99228.44
2023-05-13T00:15:12.308Z,99267.47
2023-05-13T00:17:39.984Z,99238.69
2023-05-13T00:20:09.085Z,99265.19
2023-05-13T00:22:36.680Z,99254.75
2023-05-13T00:25:06.356Z,99249.41
2023-05-13T00:27:34.146Z,99252.75
2023-05-13T00:30:02.015Z,99237.78
2023-05-13T00:32:29.697Z,99245.63
2023-05-13T00:34:57.295Z,99241.78
2023-05-13T00:37:24.891Z,99232.06
2023-05-13T00:39:52.540Z,99242.78
2023-05-13T00:42:21.550Z,99222.56
2023-05-13T00:44:49.201Z,99223.72
2023-05-13T00:47:18.054Z,99199.88
2023-05-13T00:49:45.782Z,99227.22
2023-05-13T00:52:13.538Z,99226.28
2023-05-13T00:54:41.193Z,99195.81
2023-05-13T00:57:08.817Z,99226.56
2023-05-13T00:59:37.852Z,99230.22
2023-05-13T01:02:11.400Z,99236.13
2023-05-13T01:04:45.554Z,99234.41
2023-05-13T01:07:15.752Z,99232.34
2023-05-13T01:09:55.092Z,99236.00
2023-05-13T01:12:25.790Z,99245.47
2023-05-13T01:14:59.143Z,99246.06
2023-05-13T01:17:31.938Z,99254.84
2023-05-13T01:20:01.786Z,99243.84
2023-05-13T01:22:30.765Z,99252.19
2023-05-13T01:24:58.360Z,99254.75
2023-05-13T01:27:26.023Z,99246.13
2023-05-13T01:29:54.769Z,99250.69
2023-05-13T01:32:23.149Z,99244.75
2023-05-13T01:34:51.568Z,99247.06
2023-05-13T01:37:19.680Z,99233.50
2023-05-13T01:39:48.907Z,99213.44
2023-05-13T01:42:16.607Z,99240.78
2023-05-13T01:44:44.520Z,99213.66
2023-05-13T01:47:12.139Z,99221.72
2023-05-13T01:49:39.737Z,99214.38
2023-05-13T01:52:07.836Z,99239.19
2023-05-13T01:54:35.511Z,99241.56
2023-05-13T01:57:04.763Z,99241.63
2023-05-13T01:59:32.339Z,99242.63
2023-05-13T02:01:59.985Z,99241.69
2023-05-13T02:04:28.017Z,99225.22
2023-05-13T02:06:55.686Z,99238.00
2023-05-13T02:09:23.400Z,99223.28
2023-05-13T02:11:51.127Z,99209.66
2023-05-13T02:14:20.545Z,99234.63
2023-05-13T02:16:48.293Z,99226.84
2023-05-13T02:19:15.982Z,99233.34
2023-05-13T02:21:44.369Z,99206.88
2023-05-13T02:24:12.184Z,99226.78
2023-05-13T02:26:41.502Z,99228.28
2023-05-13T02:29:09.304Z,99229.94
2023-05-13T02:31:38.298Z,99232.06
2023-05-13T02:34:05.885Z,99228.22
2023-05-13T02:36:33.661Z,99222.66
2023-05-13T02:39:01.313Z,99233.34
2023-05-13T02:41:28.908Z,99186.06
2023-05-13T02:43:56.485Z,99219.78
2023-05-13T02:46:24.169Z,99219.22
2023-05-13T02:48:53.095Z,99219.78
2023-05-13T02:51:20.674Z,99227.50
2023-05-13T02:53:48.313Z,99227.06
2023-05-13T02:56:16.871Z,99185.34
2023-05-13T02:58:44.586Z,99233.28
2023-05-13T03:01:12.230Z,99229.13
2023-05-13T03:03:40.068Z,99182.19
2023-05-13T03:06:09.411Z,99201.88
2023-05-13T03:08:37.174Z,99225.91
2023-05-13T03:11:04.946Z,99228.50
2023-05-13T03:13:32.619Z,99222.91
2023-05-13T03:16:00.245Z,99229.91
2023-05-13T03:18:31.385Z,99212.72
2023-05-13T03:20:59.074Z,99237.06
2023-05-13T03:23:27.984Z,99233.69
2023-05-13T03:25:55.627Z,99249.19
2023-05-13T03:28:23.236Z,99209.88
2023-05-13T03:30:51.065Z,99248.34
2023-05-13T03:33:18.708Z,99241.00
2023-05-13T03:35:48.467Z,99246.78
2023-05-13T03:38:16.206Z,99240.19
2023-05-13T03:40:45.275Z,99217.22
2023-05-13T03:43:12.910Z,99240.19
2023-05-13T03:45:40.633Z,99210.72
2023-05-13T03:48:08.332Z,99243.28
2023-05-13T03:50:35.972Z,99239.69
2023-05-13T03:53:05.271Z,99219.38
2023-05-13T03:55:32.899Z,99250.25
2023-05-13T03:58:01.896Z,99241.69
2023-05-13T04:00:30.359Z,99238.63
2023-05-13T04:02:58.038Z,99241.91
2023-05-13T04:05:25.772Z,99239.50
2023-05-13T04:07:53.451Z,99248.97
2023-05-13T04:10:21.664Z,99260.03
2023-05-13T04:12:49.418Z,99249.41
2023-05-13T04:15:18.648Z,99251.06
2023-05-13T04:17:46.293Z,99265.47
2023-05-13T04:20:17.181Z,99255.97
2023-05-13T04:22:44.953Z,99252.19
2023-05-13T04:25:12.683Z,99267.88
2023-05-13T04:27:40.284Z,99265.22
2023-05-13T04:30:09.056Z,99267.59
2023-05-13T04:32:39.134Z,99271.66
2023-05-13T04:35:08.232Z,99270.66
2023-05-13T04:37:35.904Z,99269.50
2023-05-13T04:40:03.547Z,99274.88
2023-05-13T04:42:31.113Z,99262.88
2023-05-13T04:44:58.824Z,99271.59
2023-05-13T04:47:26.471Z,99274.31
2023-05-13T04:49:55.810Z,99276.31
2023-05-13T04:52:23.691Z,99281.25
2023-05-13T04:54:51.350Z,99283.66
2023-05-13T04:57:18.981Z,99278.31
2023-05-13T04:59:46.651Z,99285.03
2023-05-13T05:02:14.252Z,99284.59
2023-05-13T05:04:41.873Z,99282.72
2023-05-13T05:07:10.886Z,99251.91
2023-05-13T05:09:38.440Z,99283.38
2023-05-13T05:12:06.583Z,99248.34
2023-05-13T05:14:34.379Z,99289.09
2023-05-13T05:17:02.021Z,99288.16
2023-05-13T05:19:29.851Z,99297.38
2023-05-13T05:21:58.267Z,99294.34
2023-05-13T05:24:27.380Z,99301.19
2023-05-13T05:26:55.118Z,99310.28
2023-05-13T05:29:22.733Z,99302.22
2023-05-13T05:31:50.444Z,99296.78
2023-05-13T05:34:18.078Z,99311.31
2023-05-13T05:36:45.721Z,99312.03
2023-05-13T05:39:13.578Z,99318.97
2023-05-13T05:41:42.517Z,99317.94
2023-05-13T05:44:10.196Z,99310.19
2023-05-13T05:46:37.733Z,99319.59
2023-05-13T05:49:05.366Z,99316.19
2023-05-13T05:51:33.011Z,99319.16
2023-05-13T05:54:00.670Z,99276.56
2023-05-13T05:56:28.331Z,99304.03
2023-05-13T05:58:57.397Z,99313.84
2023-05-13T06:01:25.117Z,99325.72
2023-05-13T06:03:54.911Z,99318.94
2023-05-13T06:06:22.968Z,99327.13
2023-05-13T06:08:50.592Z,99322.19
2023-05-13T06:11:18.348Z,99327.94
2023-05-13T06:13:46.113Z,99332.91
2023-05-13T06:16:15.207Z,99332.75
2023-05-13T06:18:43.121Z,99334.25
2023-05-13T06:21:10.840Z,99344.69
2023-05-13T06:23:38.682Z,99337.69
2023-05-13T06:26:06.498Z,99333.00
2023-05-13T06:28:34.311Z,99338.38
2023-05-13T06:31:02.120Z,99337.19
2023-05-13T06:33:31.250Z,99345.50
2023-05-13T06:35:58.970Z,99337.66
2023-05-13T06:38:26.737Z,99342.00
2023-05-13T06:40:54.278Z,99342.31
2023-05-13T06:43:21.842Z,99338.13
2023-05-13T06:45:49.765Z,99323.78
2023-05-13T06:48:17.344Z,99343.28
2023-05-13T06:50:46.308Z,99332.44
2023-05-13T06:53:13.914Z,99343.03
2023-05-13T06:55:42.578Z,99326.88
2023-05-13T06:58:10.294Z,99340.38
2023-05-13T07:00:38.685Z,99337.03
2023-05-13T07:03:06.754Z,99340.56
2023-05-13T07:05:34.456Z,99338.16
2023-05-13T07:08:06.750Z,99332.25
2023-05-13T07:10:38.479Z,99340.13
2023-05-13T07:13:06.259Z,99342.44
2023-05-13T07:15:33.843Z,99344.84
2023-05-13T07:18:01.494Z,99342.84
2023-05-13T07:20:29.211Z,99338.16
2023-05-13T07:22:56.806Z,99332.16
2023-05-13T07:25:25.776Z,99338.16
2023-05-13T07:27:53.342Z,99334.09
2023-05-13T07:30:21.212Z,99337.03
2023-05-13T07:32:49.163Z,99326.06
2023-05-13T07:35:17.144Z,99342.56
2023-05-13T07:37:45.221Z,99341.59
2023-05-13T07:40:13.807Z,99338.75
2023-05-13T07:42:42.885Z,99333.47
2023-05-13T07:45:11.653Z,99331.38
2023-05-13T07:47:39.290Z,99327.88
2023-05-13T07:50:08.025Z,99326.47
2023-05-13T07:52:36.275Z,99336.72
2023-05-13T07:55:04.010Z,99332.84
2023-05-13T07:57:31.648Z,99335.41
2023-05-13T08:00:00.632Z,99330.28
2023-05-13T08:02:28.339Z,99341.50
2023-05-13T08:04:55.993Z,99339.41
2023-05-13T08:07:23.662Z,99326.59
2023-05-13T08:09:51.237Z,99335.06
2023-05-13T08:12:18.843Z,99332.75
2023-05-13T08:14:48.755Z,99330.88
2023-05-13T08:17:19.431Z,99315.78
2023-05-13T08:19:47.225Z,99334.19
2023-05-13T08:22:15.041Z,99328.38
2023-05-13T08:24:43.197Z,99322.13
2023-05-13T08:27:10.932Z,99325.53
2023-05-13T08:29:38.453Z,99323.16
2023-05-13T08:32:06.642Z,99331.31
2023-05-13T08:34:35.551Z,99332.47
2023-05-13T08:37:03.072Z,99326.41
2023-05-13T08:39:30.646Z,99324.78
2023-05-13T08:41:58.690Z,99300.81
2023-05-13T08:44:29.030Z,99328.19
2023-05-13T08:47:03.330Z,99327.09
2023-05-13T08:49:31.322Z,99333.13
2023-05-13T08:52:00.246Z,99324.91
2023-05-13T08:54:28.007Z,99328.34
2023-05-13T08:56:55.575Z,99331.28
2023-05-13T08:59:23.991Z,99334.28
2023-05-13T09:01:51.876Z,99315.72
2023-05-13T09:04:19.974Z,99327.16
2023-05-13T09:06:47.955Z,99333.25
2023-05-13T09:09:16.978Z,99335.50
2023-05-13T09:11:44.805Z,99334.53
2023-05-13T09:14:13.712Z,99335.69
2023-05-13T09:16:41.508Z,99344.34
2023-05-13T09:19:09.108Z,99337.31
2023-05-13T09:21:37.080Z,99337.31
2023-05-13T09:24:11.177Z,99340.09
2023-05-13T09:26:41.422Z,99335.16
2023-05-13T09:29:19.529Z,99333.56
2023-05-13T09:31:49.691Z,99330.16
2023-05-13T09:34:25.987Z,99326.38
2023-05-13T09:36:58.149Z,99322.34
2023-05-13T09:39:25.796Z,99318.72
2023-05-13T09:41:54.828Z,99320.31
2023-05-13T09:44:22.970Z,99307.47
2023-05-13T09:46:52.325Z,99317.19
2023-05-13T09:49:20.233Z,99321.94
2023-05-13T09:51:47.843Z,99321.09
2023-05-13T09:54:15.486Z,99319.66
2023-05-13T09:56:43.085Z,99318.00
2023-05-13T09:59:12.187Z,99320.50
2023-05-13T10:01:40.425Z,99315.47
2023-05-13T10:04:08.934Z,99311.03
2023-05-13T10:06:37.247Z,99305.63
2023-05-13T10:09:07.724Z,99310.25
2023-05-13T10:11:40.895Z,99317.50
2023-05-13T10:14:08.954Z,99310.28
2023-05-13T10:16:37.946Z,99309.66
2023-05-13T10:19:06.314Z,99308.84
2023-05-13T10:21:36.173Z,99308.47
2023-05-13T10:24:03.997Z,99308.41
2023-05-13T10:26:32.327Z,99288.03
2023-05-13T10:29:00.538Z,99303.09
2023-05-13T10:31:28.537Z,99301.69
2023-05-13T10:33:57.548Z,99292.56
2023-05-13T10:36:36.097Z,99307.09
2023-05-13T10:39:27.874Z,99302.06
2023-05-13T10:42:16.716Z,99285.19
2023-05-13T10:44:44.356Z,99282.66
2023-05-13T10:47:12.072Z,99285.81
2023-05-13T10:49:41.028Z,99288.31
2023-05-13T10:52:12.118Z,99290.53
2023-05-13T10:54:42.166Z,99284.59
2023-05-13T10:57:10.404Z,99289.09
2023-05-13T10:59:38.859Z,99289.19
2023-05-13T11:02:21.914Z,99291.13
2023-05-13T11:05:00.649Z,99281.91
2023-05-13T11:07:30.256Z,99276.44
2023-05-13T11:09:57.960Z,99277.38
2023-05-13T11:12:25.577Z,99257.94
2023-05-13T11:14:56.792Z,99270.72
2023-05-13T11:17:24.433Z,99265.97
2023-05-13T11:19:52.257Z,99265.59
2023-05-13T11:22:23.934Z,99263.16
2023-05-13T11:25:05.251Z,99257.34
2023-05-13T11:27:34.593Z,99257.03
2023-05-13T11:30:07.739Z,99244.00
2023-05-13T11:32:56.286Z,99242.16
2023-05-13T11:35:25.330Z,99248.38
2023-05-13T11:37:55.231Z,99243.16
2023-05-13T11:40:24.395Z,99244.94
2023-05-13T11:42:52.420Z,99233.31
2023-05-13T11:45:21.610Z,99236.41
2023-05-13T11:47:49.520Z,99235.22
2023-05-13T11:50:20.405Z,99228.22
2023-05-13T11:52:52.693Z,99221.22
2023-05-13T11:55:28.124Z,99216.69
2023-05-13T11:57:56.302Z,99234.28
2023-05-13T12:00:27.546Z,99242.97
2023-05-13T12:02:55.904Z,99244.53
2023-05-13T12:05:24.518Z,99229.81
2023-05-13T12:07:52.894Z,99238.44
2023-05-13T12:10:20.809Z,99237.59
2023-05-13T12:12:49.972Z,99230.84
2023-05-13T12:15:19.466Z,99247.59
2023-05-13T12:17:49.349Z,99250.59
2023-05-13T12:20:18.080Z,99245.44
2023-05-13T12:22:54.140Z,99254.19
2023-05-13T12:25:51.102Z,99257.69
2023-05-13T12:28:21.496Z,99250.41
2023-05-13T12:30:53.591Z,99263.53
2023-05-13T12:33:23.015Z,99260.38
2023-05-13T12:35:51.892Z,99240.34
2023-05-13T12:38:20.983Z,99264.31
2023-05-13T12:40:50.302Z,99242.53
2023-05-13T12:43:20.729Z,99242.22
2023-05-13T12:45:53.484Z,99245.19
2023-05-13T12:48:24.546Z,99229.13
2023-05-13T12:50:52.629Z,99241.31
2023-05-13T12:53:24.293Z,99238.34
2023-05-13T12:55:55.308Z,99237.75
2023-05-13T12:58:25.390Z,99234.41
2023-05-13T13:00:53.808Z,99238.97
2023-05-13T13:03:24.258Z,99242.94
2023-05-13T13:05:52.768Z,99240.19
2023-05-13T13:08:20.795Z,99237.63
2023-05-13T13:10:48.860Z,99208.34
2023-05-13T13:13:17.635Z,99241.59
2023-05-13T13:15:46.981Z,99237.81
2023-05-13T13:18:14.928Z,99243.91
2023-05-13T13:20:42.881Z,99239.41
2023-05-13T13:23:11.288Z,99245.72
2023-05-13T13:25:40.134Z,99241.03
2023-05-13T13:28:08.316Z,99248.28
2023-05-13T13:30:36.395Z,99239.56
2023-05-13T13:33:05.797Z,99247.81
2023-05-13T13:35:33.779Z,99237.63
2023-05-13T13:38:01.431Z,99237.41
2023-05-13T13:40:29.363Z,99237.41
2023-05-13T13:42:57.250Z,99238.41
2023-05-13T13:45:25.531Z,99246.81
2023-05-13T13:47:53.548Z,99245.69
2023-05-13T13:50:23.281Z,99255.63
2023-05-13T13:52:52.379Z,99235.66
2023-05-13T13:55:20.575Z,99239.19
2023-05-13T13:57:48.709Z,99243.81
2023-05-13T14:00:18.600Z,99255.78
2023-05-13T14:02:46.763Z,99259.53
2023-05-13T14:05:15.913Z,99252.38
2023-05-13T14:07:46.349Z,99264.56
2023-05-13T14:10:14.366Z,99262.22
2023-05-13T14:12:42.395Z,99260.00
2023-05-13T14:15:10.970Z,99251.00
2023-05-13T14:17:38.968Z,99257.81
2023-05-13T14:20:10.253Z,99245.53
2023-05-13T14:22:38.397Z,99239.13
2023-05-13T14:25:09.403Z,99248.56
2023-05-13T14:27:37.912Z,99238.09
2023-05-13T14:30:06.661Z,99238.31
2023-05-13T14:32:34.671Z,99239.88
2023-05-13T14:35:02.601Z,99250.13
2023-05-13T14:37:31.163Z,99246.22
2023-05-13T14:39:59.373Z,99238.22
2023-05-13T14:42:28.833Z,99228.28
2023-05-13T14:44:56.752Z,99227.91
2023-05-13T14:47:24.727Z,99219.03
2023-05-13T14:49:53.366Z,99218.81
2023-05-13T14:52:21.608Z,99208.69
2023-05-13T14:54:49.611Z,99215.25
2023-05-13T14:57:17.592Z,99221.59
2023-05-13T14:59:46.981Z,99217.94
2023-05-13T15:02:17.500Z,99223.53
2023-05-13T15:04:45.556Z,99213.91
2023-05-13T15:07:13.824Z,99219.28
2023-05-13T15:09:41.817Z,99216.84
2023-05-13T15:12:10.946Z,99217.53
2023-05-13T15:14:38.821Z,99216.34
2023-05-13T15:17:11.945Z,99210.09
2023-05-13T15:19:40.175Z,99214.66
2023-05-13T15:22:08.101Z,99217.03
2023-05-13T15:24:37.403Z,99220.94
2023-05-13T15:27:05.905Z,99225.09
2023-05-13T15:29:33.973Z,99195.72
2023-05-13T15:32:01.942Z,99219.19
2023-05-13T15:34:31.311Z,99206.53
2023-05-13T15:36:59.262Z,99187.78
2023-05-13T15:39:27.255Z,99211.63
2023-05-13T15:41:55.268Z,99206.75
2023-05-13T15:44:23.451Z,99208.28
2023-05-13T15:46:51.987Z,99217.66
2023-05-13T15:49:20.034Z,99166.41
2023-05-13T15:51:49.296Z,99218.75
2023-05-13T15:54:17.236Z,99208.19
2023-05-13T15:56:45.161Z,99208.06
2023-05-13T15:59:13.672Z,99202.56
2023-05-13T16:01:42.018Z,99207.19
2023-05-13T16:04:10.612Z,99205.22
2023-05-13T16:06:38.813Z,99201.78
2023-05-13T16:09:08.319Z,99180.88
2023-05-13T16:11:36.299Z,99202.38
2023-05-13T16:14:04.646Z,99189.00
2023-05-13T16:16:32.812Z,99195.75
2023-05-13T16:19:03.646Z,99188.44
2023-05-13T16:21:31.984Z,99193.81
2023-05-13T16:23:59.769Z,99199.56
2023-05-13T16:26:29.258Z,99182.13
2023-05-13T16:28:57.167Z,99158.16
2023-05-13T16:31:25.242Z,99174.47
2023-05-13T16:33:53.156Z,99195.22
2023-05-13T16:36:23.917Z,99192.75
2023-05-13T16:38:52.052Z,99194.59
2023-05-13T16:41:21.388Z,99194.34
2023-05-13T16:43:50.924Z,99199.69
2023-05-13T16:46:18.995Z,99204.94
2023-05-13T16:48:46.964Z,99200.56
2023-05-13T16:51:14.951Z,99192.31
2023-05-13T16:53:42.924Z,99198.97
2023-05-13T16:56:11.018Z,99189.09
2023-05-13T16:58:39.111Z,99191.06
2023-05-13T17:01:08.426Z,99194.31
2023-05-13T17:03:36.461Z,99184.34
2023-05-13T17:06:04.542Z,99183.72
2023-05-13T17:08:32.333Z,99192.91
2023-05-13T17:11:00.362Z,99187.47
2023-05-13T17:13:27.908Z,99190.47
2023-05-13T17:15:55.876Z,99181.66
2023-05-13T17:18:26.457Z,99181.59
2023-05-13T17:20:55.164Z,99186.91
2023-05-13T17:23:23.074Z,99185.59
2023-05-13T17:25:50.956Z,99186.38
2023-05-13T17:28:18.565Z,99179.75
2023-05-13T17:30:46.434Z,99185.03
2023-05-13T17:33:14.501Z,99183.13
2023-05-13T17:35:43.699Z,99190.38
2023-05-13T17:38:11.641Z,99185.00
2023-05-13T17:40:39.460Z,99196.00
2023-05-13T17:43:07.407Z,99185.19
2023-05-13T17:45:35.839Z,99193.56
2023-05-13T17:48:04.230Z,99192.50
2023-05-13T17:50:32.389Z,99196.44
2023-05-13T17:53:01.803Z,99167.41
2023-05-13T17:55:29.601Z,99203.25
2023-05-13T17:57:59.156Z,99173.78
2023-05-13T18:00:28.222Z,99200.66
2023-05-13T18:02:55.964Z,99187.88
2023-05-13T18:05:23.765Z,99195.44
2023-05-13T18:07:51.577Z,99189.81
2023-05-13T18:10:21.000Z,99190.97
2023-05-13T18:12:48.900Z,99177.34
2023-05-13T18:15:16.593Z,99164.72
2023-05-13T18:17:44.282Z,99200.94
2023-05-13T18:20:13.064Z,99192.53
2023-05-13T18:22:41.297Z,99207.53
2023-05-13T18:25:10.733Z,99203.16
2023-05-13T18:27:40.154Z,99195.47
2023-05-13T18:30:09.212Z,99207.97
2023-05-13T18:32:38.037Z,99199.84
2023-05-13T18:35:06.847Z,99193.72
2023-05-13T18:37:35.544Z,99190.94
2023-05-13T18:40:03.794Z,99220.16
2023-05-13T18:42:31.878Z,99228.53
2023-05-13T18:45:01.161Z,99183.34
2023-05-13T18:47:29.158Z,99221.06
2023-05-13T18:49:57.289Z,99202.75
2023-05-13T18:52:26.134Z,99227.44
2023-05-13T18:54:54.241Z,99231.31
2023-05-13T18:57:23.901Z,99235.69
2023-05-13T18:59:52.259Z,99238.69
2023-05-13T19:02:22.136Z,99230.69
2023-05-13T19:04:50.093Z,99236.47
2023-05-13T19:07:17.792Z,99195.91
2023-05-13T19:09:45.797Z,99235.81
2023-05-13T19:12:13.667Z,99253.56
2023-05-13T19:14:44.910Z,99254.63
2023-05-13T19:17:13.025Z,99266.78
2023-05-13T19:19:43.324Z,99267.63
2023-05-13T19:22:12.333Z,99272.09
2023-05-13T19:24:41.206Z,99263.75
2023-05-13T19:27:10.207Z,99265.94
2023-05-13T19:29:38.492Z,99270.97
2023-05-13T19:32:07.552Z,99274.88
2023-05-13T19:34:35.752Z,99269.25
2023-05-13T19:37:06.497Z,99270.59
2023-05-13T19:39:34.963Z,99271.25
2023-05-13T19:42:03.304Z,99270.69
2023-05-13T19:44:31.927Z,99281.47
2023-05-13T19:46:59.900Z,99269.25
2023-05-13T19:49:27.867Z,99265.81
2023-05-13T19:51:55.808Z,99278.44
2023-05-13T19:54:25.091Z,99281.19
2023-05-13T19:56:54.030Z,99276.69
2023-05-13T19:59:22.078Z,99275.88
2023-05-13T20:01:50.047Z,99268.06
2023-05-13T20:04:18.016Z,99276.97
2023-05-13T20:06:45.967Z,99275.09
2023-05-13T20:09:14.477Z,99283.69
2023-05-13T20:11:44.111Z,99285.56
2023-05-13T20:14:13.258Z,99277.78
2023-05-13T20:16:41.752Z,99276.75
2023-05-13T20:19:09.831Z,99276.78
2023-05-13T20:21:37.865Z,99281.31
2023-05-13T20:24:05.934Z,99285.59
2023-05-13T20:26:34.952Z,99280.09
2023-05-13T20:29:04.289Z,99279.97
2023-05-13T20:31:32.209Z,99287.56
2023-05-13T20:34:00.443Z,99284.84
2023-05-13T20:36:28.350Z,99280.41
2023-05-13T20:38:56.396Z,99272.56
2023-05-13T20:41:24.293Z,99274.84
2023-05-13T20:43:52.260Z,99260.91
2023-05-13T20:46:21.545Z,99271.53
2023-05-13T20:48:49.535Z,99267.25
2023-05-13T20:51:17.535Z,99271.63
2023-05-13T20:53:46.548Z,99251.38
2023-05-13T20:56:14.519Z,99268.56
2023-05-13T20:58:42.381Z,99269.75
2023-05-13T21:01:10.415Z,99259.06
2023-05-13T21:03:39.485Z,99257.53
2023-05-13T21:06:07.587Z,99271.72
2023-05-13T21:08:37.022Z,99277.19
2023-05-13T21:11:04.880Z,99268.97
2023-05-13T21:13:32.798Z,99271.22
2023-05-13T21:16:00.723Z,99264.19
2023-05-13T21:18:28.756Z,99263.59
2023-05-13T21:20:58.134Z,99268.53
2023-05-13T21:23:26.109Z,99268.47
2023-05-13T21:25:54.090Z,99265.13
2023-05-13T21:28:23.756Z,99262.91
2023-05-13T21:30:51.822Z,99262.31
2023-05-13T21:33:19.737Z,99269.75
2023-05-13T21:35:47.561Z,99264.84
2023-05-13T21:38:16.693Z,99267.25
2023-05-13T21:40:44.683Z,99261.78
2023-05-13T21:43:12.745Z,99262.53
2023-05-13T21:45:40.981Z,99264.97
2023-05-13T21:48:09.175Z,99262.41
2023-05-13T21:50:37.170Z,99259.97
2023-05-13T21:53:05.783Z,99254.22
2023-05-13T21:55:35.098Z,99255.69
2023-05-13T21:58:03.143Z,99247.28
2023-05-13T22:00:31.721Z,99260.41
2023-05-13T22:03:00.574Z,99258.09
2023-05-13T22:05:28.695Z,99268.38
2023-05-13T22:07:56.529Z,99262.09
2023-05-13T22:10:24.974Z,99253.16
2023-05-13T22:12:54.504Z,99253.69
2023-05-13T22:15:22.444Z,99252.03
2023-05-13T22:17:50.994Z,99244.44
2023-05-13T22:20:19.128Z,99243.72
2023-05-13T22:22:47.163Z,99240.78
2023-05-13T22:25:14.970Z,99246.00
2023-05-13T22:27:43.055Z,99244.28
2023-05-13T22:30:13.021Z,99246.56
2023-05-13T22:32:40.941Z,99238.69
2023-05-13T22:35:09.901Z,99246.00
2023-05-13T22:37:37.694Z,99238.31
2023-05-13T22:40:06.421Z,99241.50
2023-05-13T22:42:34.016Z,99229.13
2023-05-13T22:45:01.606Z,99235.66
2023-05-13T22:47:30.610Z,99222.75
2023-05-13T22:49:58.259Z,99236.50
2023-05-13T22:52:25.938Z,99239.63
2023-05-13T22:54:53.547Z,99239.56
2023-05-13T22:57:21.257Z,99238.00
2023-05-13T22:59:48.959Z,99240.78
2023-05-13T23:02:16.564Z,99239.84
2023-05-13T23:04:45.511Z,99235.34
2023-05-13T23:07:13.128Z,99224.69
2023-05-13T23:09:40.804Z,99236.06
2023-05-13T23:12:08.969Z,99225.25
2023-05-13T23:14:36.574Z,99195.59
2023-05-13T23:17:04.247Z,99228.75
2023-05-13T23:19:31.965Z,99229.28
2023-05-13T23:22:00.975Z,99224.78
2023-05-13T23:24:28.539Z,99223.44
2023-05-13T23:26:56.265Z,99214.81
2023-05-13T23:29:27.381Z,99218.84
2023-05-13T23:31:55.535Z,99213.00
2023-05-13T23:34:23.412Z,99211.06
2023-05-13T23:36:51.064Z,99215.59
2023-05-13T23:39:20.616Z,99211.97
2023-05-13T23:41:48.501Z,99206.56
2023-05-13T23:44:16.170Z,99195.38
2023-05-13T23:46:43.866Z,99204.38
2023-05-13T23:49:11.566Z,99208.72
2023-05-13T23:51:39.315Z,99205.00
2023-05-13T23:54:08.135Z,99206.09
2023-05-13T23:56:37.148Z,99183.88
2023-05-13T23:59:04.853Z,99195.38
